Time;durP1;ratioP1;P1;durP2;ratioP2;P2;SDS_P1;SDS_P2;PMS_P1;PMS_P2;Temp;Humidity;BMP_temperature;BMP_pressure;BME280_temperature;BME280_humidity;BME280_pressure;Samples;Min_cycle;Max_cycle;Signal;HPM_P1;HPM_P2
2023/06/17 00:00:13;;;;;;;7.32;5.50;;;;;;;23.03;55.27;99750.56;5092957;28;20135;-64
2023/06/17 00:02:41;;;;;;;7.25;5.03;;;;;;;23.03;55.35;99756.00;5093337;28;20054;-63
2023/06/17 00:05:10;;;;;;;6.38;5.18;;;;;;;23.02;55.39;99749.72;5093112;28;20125;-63
2023/06/17 00:07:39;;;;;;;7.45;5.32;;;;;;;23.02;55.25;99748.88;5092902;28;20121;-64
2023/06/17 00:10:08;;;;;;;8.70;5.32;;;;;;;23.01;55.46;99744.47;5092906;28;20052;-64
2023/06/17 00:12:36;;;;;;;7.68;5.40;;;;;;;23.00;55.55;99750.94;5092850;28;20044;-63
2023/06/17 00:15:08;;;;;;;6.63;5.15;;;;;;;23.00;55.46;99730.03;5093123;28;20063;-63
2023/06/17 00:17:36;;;;;;;7.50;5.18;;;;;;;22.99;55.23;99738.38;5092882;28;20068;-63
2023/06/17 00:20:10;;;;;;;8.90;5.57;;;;;;;22.99;55.09;99732.94;5092645;28;20481;-63
2023/06/17 00:22:39;;;;;;;9.07;5.43;;;;;;;22.98;55.19;99726.66;5092664;28;20054;-63
2023/06/17 00:25:08;;;;;;;6.22;4.50;;;;;;;22.97;55.13;99729.53;5092562;28;20048;-63
2023/06/17 00:27:36;;;;;;;7.45;5.15;;;;;;;22.98;54.98;99725.81;5092438;28;20070;-64
2023/06/17 00:30:07;;;;;;;8.27;4.97;;;;;;;22.95;54.92;99727.00;5092632;28;20051;-63
2023/06/17 00:32:36;;;;;;;7.90;5.38;;;;;;;22.95;54.98;99716.13;5092611;28;20131;-63
2023/06/17 00:35:06;;;;;;;6.43;5.10;;;;;;;22.94;54.80;99717.16;5092560;28;20055;-63
2023/06/17 00:37:34;;;;;;;6.25;4.65;;;;;;;22.95;54.72;99720.72;5092891;28;20067;-63
2023/06/17 00:40:07;;;;;;;6.53;4.78;;;;;;;22.95;54.78;99718.00;5092156;28;20048;-63
2023/06/17 00:42:36;;;;;;;7.23;4.87;;;;;;;22.94;54.74;99719.03;5092125;28;20048;-63
2023/06/17 00:45:07;;;;;;;7.32;4.68;;;;;;;22.94;54.46;99719.03;5092128;28;20493;-63
2023/06/17 00:47:36;;;;;;;7.78;5.20;;;;;;;22.91;54.26;99719.41;5092230;28;20485;-63
2023/06/17 00:50:07;;;;;;;6.85;5.30;;;;;;;22.89;54.12;99710.63;5092252;28;20139;-63
2023/06/17 00:52:37;;;;;;;8.35;4.70;;;;;;;22.88;54.18;99720.66;5092059;28;20045;-63
2023/06/17 00:55:11;;;;;;;7.13;4.70;;;;;;;22.90;54.19;99728.63;5092172;28;20064;-64
2023/06/17 00:57:40;;;;;;;6.63;4.85;;;;;;;22.85;54.16;99716.41;5091781;28;20528;-63
2023/06/17 01:00:11;;;;;;;6.50;4.43;;;;;;;22.85;54.20;99710.13;5091765;28;20531;-63
2023/06/17 01:02:40;;;;;;;6.13;4.63;;;;;;;22.83;53.82;99707.56;5091921;28;20068;-62
2023/06/17 01:05:12;;;;;;;7.07;4.93;;;;;;;22.79;53.98;99711.69;5091988;28;20048;-64
2023/06/17 01:08:08;;;;;;;7.93;5.13;;;;;;;22.70;53.64;99701.91;5091833;28;20136;-63
2023/06/17 01:10:43;;;;;;;8.85;4.70;;;;;;;22.65;53.44;99704.31;5091806;28;20136;-63
2023/06/17 01:13:14;;;;;;;7.13;4.57;;;;;;;22.60;53.62;99695.03;5091570;28;20451;-63
2023/06/17 01:15:44;;;;;;;6.90;4.80;;;;;;;22.57;53.45;99698.94;5091888;28;20109;-63
2023/06/17 01:18:17;;;;;;;7.82;5.18;;;;;;;22.52;53.42;99706.81;5091814;28;20090;-63
2023/06/17 01:20:48;;;;;;;8.00;4.95;;;;;;;22.50;53.24;99706.16;5091562;28;20052;-63
2023/06/17 01:23:18;;;;;;;6.70;4.75;;;;;;;22.49;53.54;99708.03;5091713;28;20102;-63
2023/06/17 01:25:47;;;;;;;7.53;4.72;;;;;;;22.52;53.55;99706.81;5091425;28;20048;-63
2023/06/17 01:28:19;;;;;;;7.10;4.72;;;;;;;22.54;53.31;99710.19;5091739;28;20047;-63
2023/06/17 01:30:54;;;;;;;6.43;4.50;;;;;;;22.56;53.37;99705.41;5091376;28;20497;-63
2023/06/17 01:33:23;;;;;;;7.22;4.57;;;;;;;22.56;53.22;99710.84;5091427;28;20752;-63
2023/06/17 01:35:59;;;;;;;7.03;4.85;;;;;;;22.59;53.24;99709.66;5091386;28;20525;-64
2023/06/17 01:38:34;;;;;;;6.28;4.57;;;;;;;22.58;53.20;99714.22;5091391;28;20043;-63
2023/06/17 01:41:08;;;;;;;8.02;4.75;;;;;;;22.57;53.16;99723.41;5091159;28;20082;-63
2023/06/17 01:43:37;;;;;;;5.55;4.25;;;;;;;22.55;53.00;99709.16;5091517;28;20048;-63
2023/06/17 01:46:07;;;;;;;6.35;4.60;;;;;;;22.54;53.20;99713.75;5091406;28;20044;-63
2023/06/17 01:48:37;;;;;;;7.72;4.45;;;;;;;22.54;52.78;99718.34;5091300;28;20044;-64
2023/06/17 01:51:06;;;;;;;7.78;5.15;;;;;;;22.53;52.91;99709.34;5091132;28;20064;-64
2023/06/17 01:53:34;;;;;;;6.97;4.55;;;;;;;22.53;52.86;99716.66;5092499;28;20105;-63
2023/06/17 01:56:04;;;;;;;6.53;4.47;;;;;;;22.52;52.91;99709.53;5095431;28;20069;-63
2023/06/17 01:58:32;;;;;;;7.45;5.03;;;;;;;22.50;52.85;99704.28;5095575;28;20094;-63
2023/06/17 02:01:00;;;;;;;6.57;4.43;;;;;;;22.50;52.93;99708.88;5095247;28;20052;-62
2023/06/17 02:03:28;;;;;;;6.85;4.30;;;;;;;22.49;52.72;99713.47;5095257;28;20083;-63
2023/06/17 02:05:57;;;;;;;5.63;3.95;;;;;;;22.48;52.54;99705.47;5095428;28;20528;-63
2023/06/17 02:08:25;;;;;;;7.22;4.80;;;;;;;22.48;52.54;99705.47;5095101;28;20451;-63
2023/06/17 02:10:54;;;;;;;7.97;4.70;;;;;;;22.46;52.63;99704.81;5095195;28;20087;-63
2023/06/17 02:13:23;;;;;;;6.78;4.80;;;;;;;22.46;52.73;99705.66;5095075;28;20473;-63
2023/06/17 02:15:51;;;;;;;7.22;4.63;;;;;;;22.47;52.67;99703.78;5095032;28;20067;-63
2023/06/17 02:18:20;;;;;;;6.88;4.70;;;;;;;22.45;52.79;99703.13;5094992;28;20059;-63
2023/06/17 02:20:48;;;;;;;7.72;4.60;;;;;;;22.45;52.71;99706.69;5095075;28;20079;-63
2023/06/17 02:23:16;;;;;;;5.95;4.25;;;;;;;22.45;52.76;99701.25;5094922;28;20044;-63
2023/06/17 02:25:45;;;;;;;6.82;4.35;;;;;;;22.44;52.49;99709.59;5095010;28;20084;-63
2023/06/17 02:28:13;;;;;;;7.25;4.93;;;;;;;22.42;52.49;99708.94;5093667;28;20044;-63
2023/06/17 02:30:42;;;;;;;7.55;4.55;;;;;;;22.39;52.57;99702.00;5094651;28;20046;-64
2023/06/17 02:33:12;;;;;;;5.80;4.40;;;;;;;22.37;52.30;99706.75;5094967;28;20076;-63
2023/06/17 02:35:41;;;;;;;6.20;4.22;;;;;;;22.38;52.10;99710.31;5094805;28;20048;-63
2023/06/17 02:38:09;;;;;;;7.97;4.60;;;;;;;22.38;52.56;99702.16;5094644;28;20048;-63
2023/06/17 02:40:39;;;;;;;6.45;4.57;;;;;;;22.36;52.31;99709.66;5094662;28;20080;-63
2023/06/17 02:43:08;;;;;;;6.97;4.47;;;;;;;22.33;52.31;99713.59;5094564;28;20056;-63
2023/06/17 02:45:36;;;;;;;6.25;4.20;;;;;;;22.32;52.40;99719.22;5094904;28;20080;-63
2023/06/17 02:48:06;;;;;;;9.23;4.60;;;;;;;22.31;52.14;99723.78;5094643;28;20086;-63
2023/06/17 02:50:34;;;;;;;7.22;4.60;;;;;;;22.31;52.41;99718.38;5094658;28;20106;-62
2023/06/17 02:53:04;;;;;;;6.28;4.35;;;;;;;22.32;52.32;99708.34;5094103;28;20048;-63
2023/06/17 02:55:32;;;;;;;5.65;4.30;;;;;;;22.31;52.14;99720.25;5094375;28;20048;-63
2023/06/17 02:58:01;;;;;;;7.40;4.63;;;;;;;22.30;52.31;99715.84;5094176;28;20048;-64
2023/06/17 03:00:29;;;;;;;6.43;4.40;;;;;;;22.28;52.46;99714.13;5094358;28;20052;-63
2023/06/17 03:02:57;;;;;;;5.85;4.22;;;;;;;22.28;52.14;99714.13;5094409;28;20048;-64
2023/06/17 03:05:27;;;;;;;5.82;4.35;;;;;;;22.28;52.35;99714.13;5094054;28;20044;-63
2023/06/17 03:07:55;;;;;;;6.97;4.78;;;;;;;22.28;52.18;99718.69;5094011;28;20121;-63
2023/06/17 03:10:23;;;;;;;7.75;4.70;;;;;;;22.28;52.08;99719.53;5094024;28;20051;-63
2023/06/17 03:12:51;;;;;;;5.82;4.03;;;;;;;22.28;52.25;99724.97;5094180;28;20044;-63
2023/06/17 03:15:21;;;;;;;5.22;4.00;;;;;;;22.28;52.03;99730.41;5094058;28;20044;-63
2023/06/17 03:17:49;;;;;;;6.95;4.18;;;;;;;22.27;51.93;99727.88;5094011;28;20047;-63
2023/06/17 03:20:17;;;;;;;7.13;4.55;;;;;;;22.26;51.92;99727.03;5093801;28;20485;-63
2023/06/17 03:22:48;;;;;;;7.63;4.53;;;;;;;22.24;52.04;99729.09;5093796;28;20044;-63
2023/06/17 03:25:16;;;;;;;6.72;4.35;;;;;;;22.23;51.95;99727.41;5093715;28;20048;-62
2023/06/17 03:27:44;;;;;;;6.10;4.43;;;;;;;22.22;52.07;99731.16;5093876;28;20073;-63
2023/06/17 03:30:14;;;;;;;5.80;4.28;;;;;;;22.23;52.08;99740.16;5093892;28;20075;-63
2023/06/17 03:32:44;;;;;;;5.97;4.20;;;;;;;22.23;52.07;99740.16;5093743;28;20107;-63
2023/06/17 03:35:13;;;;;;;6.00;4.38;;;;;;;22.22;51.78;99736.59;5093615;28;20059;-63
2023/06/17 03:37:42;;;;;;;7.10;3.85;;;;;;;22.22;52.02;99741.16;5093385;28;20521;-63
2023/06/17 03:40:13;;;;;;;6.28;4.30;;;;;;;22.20;52.09;99741.34;5093576;28;20056;-64
2023/06/17 03:42:41;;;;;;;6.97;4.32;;;;;;;22.21;51.85;99743.03;5093467;28;20048;-63
2023/06/17 03:45:10;;;;;;;6.18;4.18;;;;;;;22.21;52.02;99740.34;5093475;28;20044;-63
2023/06/17 03:47:39;;;;;;;6.70;4.32;;;;;;;22.20;51.77;99746.78;5093680;28;20098;-63
2023/06/17 03:50:08;;;;;;;6.03;4.30;;;;;;;22.20;51.94;99743.22;5093085;28;20044;-63
2023/06/17 03:52:36;;;;;;;8.77;4.90;;;;;;;22.16;51.79;99750.88;5093254;28;20044;-62
2023/06/17 03:55:05;;;;;;;7.30;4.63;;;;;;;22.14;51.93;99754.81;5093238;28;20131;-63
2023/06/17 03:57:35;;;;;;;6.57;4.28;;;;;;;22.12;51.71;99752.28;5093307;28;20132;-63
2023/06/17 04:00:04;;;;;;;5.70;4.15;;;;;;;22.12;51.85;99756.84;5093255;28;20127;-63
2023/06/17 04:02:33;;;;;;;7.43;4.50;;;;;;;22.12;51.65;99754.13;5092910;28;20097;-63
2023/06/17 04:05:02;;;;;;;7.75;4.65;;;;;;;22.12;51.98;99746.84;5093205;28;20070;-63
2023/06/17 04:07:32;;;;;;;6.35;4.20;;;;;;;22.12;51.94;99757.69;5092879;28;20062;-63
2023/06/17 04:10:01;;;;;;;6.72;4.03;;;;;;;22.12;51.82;99754.97;5093004;28;20101;-63
2023/06/17 04:12:37;;;;;;;6.22;4.22;;;;;;;22.12;51.87;99765.84;5092880;28;20083;-63
2023/06/17 04:15:07;;;;;;;7.25;4.05;;;;;;;22.12;51.92;99757.69;5092687;28;20048;-63
2023/06/17 04:17:36;;;;;;;6.68;4.45;;;;;;;22.08;51.78;99756.34;5092551;28;20044;-63
2023/06/17 04:20:10;;;;;;;7.40;4.15;;;;;;;22.09;51.97;99762.63;5092700;28;20056;-63
2023/06/17 04:22:39;;;;;;;7.22;4.40;;;;;;;22.11;52.02;99768.75;5092676;28;20481;-63
2023/06/17 04:25:10;;;;;;;6.63;4.30;;;;;;;22.11;51.92;99766.88;5092631;28;20055;-63
2023/06/17 04:27:40;;;;;;;5.55;3.97;;;;;;;22.12;51.79;99762.28;5092433;28;20083;-63
2023/06/17 04:30:09;;;;;;;6.25;4.10;;;;;;;22.11;52.05;99761.44;5092447;28;20048;-62
2023/06/17 04:32:39;;;;;;;5.63;4.10;;;;;;;22.14;51.64;99765.66;5092644;28;20051;-63
2023/06/17 04:35:08;;;;;;;5.88;4.53;;;;;;;22.11;51.79;99772.31;5092447;28;20485;-63
2023/06/17 04:37:37;;;;;;;6.35;4.20;;;;;;;22.11;51.87;99766.88;5092429;28;20548;-63
2023/06/17 04:40:07;;;;;;;6.53;4.10;;;;;;;22.11;51.95;99772.31;5092208;28;21042;-62
2023/06/17 04:42:36;;;;;;;6.07;4.50;;;;;;;22.11;51.86;99772.31;5092282;28;20056;-61
2023/06/17 04:45:08;;;;;;;6.13;4.22;;;;;;;22.07;51.76;99770.94;5092237;28;20044;-62
2023/06/17 04:47:36;;;;;;;6.68;4.60;;;;;;;22.02;51.99;99778.78;5092411;28;20052;-62
2023/06/17 04:50:05;;;;;;;5.85;4.45;;;;;;;21.98;52.03;99775.53;5092208;28;20044;-62
2023/06/17 04:52:34;;;;;;;6.85;4.75;;;;;;;21.95;52.45;99769.63;5092205;28;20055;-63
2023/06/17 04:55:03;;;;;;;7.90;4.32;;;;;;;21.93;51.91;99767.09;5091915;28;20074;-63
2023/06/17 04:57:31;;;;;;;6.55;4.55;;;;;;;21.92;52.41;99772.72;5092245;28;20079;-63
2023/06/17 04:59:59;;;;;;;6.45;4.45;;;;;;;21.91;52.09;99773.75;5092151;28;20044;-62
2023/06/17 05:02:29;;;;;;;5.75;4.28;;;;;;;21.92;52.02;99770.00;5091905;28;20066;-62
2023/06/17 05:04:57;;;;;;;7.22;4.78;;;;;;;21.86;51.89;99773.41;5092047;28;20132;-62
2023/06/17 05:07:25;;;;;;;5.60;4.32;;;;;;;21.81;52.01;99778.50;5091792;28;20040;-62
2023/06/17 05:09:53;;;;;;;6.50;4.72;;;;;;;21.82;52.33;99777.50;5091674;28;20493;-61
2023/06/17 05:12:22;;;;;;;6.28;4.38;;;;;;;21.80;52.27;99782.25;5091815;28;20040;-62
2023/06/17 05:14:50;;;;;;;6.10;4.35;;;;;;;21.69;52.24;99778.88;5091865;28;20113;-62
2023/06/17 05:17:18;;;;;;;7.47;4.65;;;;;;;21.68;52.47;99773.66;5091736;28;20180;-62
2023/06/17 05:19:48;;;;;;;6.25;4.38;;;;;;;21.69;52.70;99773.47;5091582;28;20048;-61
2023/06/17 05:22:16;;;;;;;6.13;4.20;;;;;;;21.68;52.71;99770.94;5091419;28;20481;-62
2023/06/17 05:24:44;;;;;;;7.10;4.75;;;;;;;21.67;52.58;99769.25;5091762;28;20056;-61
2023/06/17 05:27:13;;;;;;;6.55;4.20;;;;;;;21.69;52.54;99778.88;5091349;28;20090;-63
2023/06/17 05:29:41;;;;;;;7.15;4.88;;;;;;;21.70;52.46;99764.28;5090771;28;20064;-64
2023/06/17 05:32:09;;;;;;;7.38;4.85;;;;;;;21.71;52.47;99781.44;5091421;28;20040;-63
2023/06/17 05:34:37;;;;;;;7.47;5.15;;;;;;;21.67;52.76;99775.50;5091323;28;20048;-64
2023/06/17 05:37:06;;;;;;;7.07;4.45;;;;;;;21.67;52.58;99780.94;5091431;28;20040;-62
2023/06/17 05:39:35;;;;;;;7.53;4.68;;;;;;;21.67;52.55;99780.94;5091582;28;20094;-63
2023/06/17 05:42:03;;;;;;;7.88;4.63;;;;;;;21.64;52.66;99781.31;5091193;28;20519;-62
2023/06/17 05:44:31;;;;;;;7.90;4.93;;;;;;;21.59;52.94;99783.69;5091340;28;20559;-62
2023/06/17 05:46:59;;;;;;;6.53;4.47;;;;;;;21.60;52.70;99793.50;5091290;28;20095;-63
2023/06/17 05:49:28;;;;;;;7.18;4.30;;;;;;;21.62;53.14;99787.94;5091201;28;20190;-63
2023/06/17 05:51:56;;;;;;;6.50;4.30;;;;;;;21.67;53.21;99797.22;5091134;28;20052;-62
2023/06/17 05:54:25;;;;;;;6.43;4.35;;;;;;;21.69;53.01;99789.75;5091429;28;20048;-63
2023/06/17 05:56:54;;;;;;;6.38;4.30;;;;;;;21.69;53.09;99795.19;5091383;28;20499;-62
2023/06/17 05:59:23;;;;;;;6.80;4.85;;;;;;;21.59;53.28;99805.38;5091206;28;20131;-63
2023/06/17 06:01:52;;;;;;;8.02;5.20;;;;;;;21.59;53.51;99802.66;5090917;28;20457;-61
2023/06/17 06:04:20;;;;;;;7.30;4.60;;;;;;;21.55;53.56;99798.63;5091331;28;20154;-62
2023/06/17 06:06:48;;;;;;;7.40;5.18;;;;;;;21.54;53.64;99802.38;5091339;28;20048;-62
2023/06/17 06:09:16;;;;;;;6.90;4.90;;;;;;;21.54;53.77;99802.38;5091000;28;20176;-63
2023/06/17 06:11:46;;;;;;;8.90;4.78;;;;;;;21.54;53.47;99796.94;5091176;28;20074;-62
2023/06/17 06:14:15;;;;;;;6.25;4.43;;;;;;;21.57;53.46;99806.59;5091068;28;20051;-62
2023/06/17 06:16:46;;;;;;;9.48;5.00;;;;;;;21.57;53.67;99803.88;5091290;28;20048;-62
2023/06/17 06:19:14;;;;;;;7.72;4.82;;;;;;;21.58;53.74;99803.69;5090947;28;20052;-61
2023/06/17 06:21:42;;;;;;;7.03;4.47;;;;;;;21.60;53.51;99809.78;5090677;28;20505;-62
2023/06/17 06:24:11;;;;;;;6.88;4.63;;;;;;;21.63;53.36;99809.47;5091038;28;20109;-65
2023/06/17 06:26:39;;;;;;;7.22;4.68;;;;;;;21.65;53.63;99801.16;5090810;28;20044;-64
2023/06/17 06:29:09;;;;;;;6.28;4.47;;;;;;;21.66;53.48;99806.38;5092827;28;20131;-63
2023/06/17 06:31:37;;;;;;;9.10;4.75;;;;;;;21.65;53.66;99804.69;5090809;28;20047;-64
2023/06/17 06:34:05;;;;;;;8.40;4.65;;;;;;;21.64;53.52;99808.44;5090795;28;20481;-64
2023/06/17 06:36:33;;;;;;;8.10;4.70;;;;;;;21.66;53.90;99814.53;5090736;28;20048;-64
2023/06/17 06:39:01;;;;;;;8.70;4.75;;;;;;;21.65;54.13;99801.97;5091014;28;20157;-62
2023/06/17 06:41:33;;;;;;;7.05;4.65;;;;;;;21.67;53.79;99812.66;5094333;28;20040;-63
2023/06/17 06:44:01;;;;;;;10.43;5.07;;;;;;;21.66;54.25;99811.81;5094619;28;20060;-63
2023/06/17 06:46:32;;;;;;;8.43;4.95;;;;;;;21.67;54.43;99802.66;5094588;28;20481;-62
2023/06/17 06:49:00;;;;;;;6.28;4.60;;;;;;;21.63;54.08;99812.19;5094467;28;20048;-63
2023/06/17 06:51:28;;;;;;;6.65;4.68;;;;;;;21.66;54.16;99816.41;5094498;28;20059;-63
2023/06/17 06:53:57;;;;;;;6.03;4.40;;;;;;;21.69;54.24;99813.34;5093124;28;20481;-62
2023/06/17 06:56:25;;;;;;;6.57;4.75;;;;;;;21.72;54.33;99818.44;5094283;28;20044;-63
2023/06/17 06:58:56;;;;;;;6.70;4.65;;;;;;;21.73;54.26;99822.00;5094367;28;20131;-63
2023/06/17 07:01:26;;;;;;;6.70;4.82;;;;;;;21.75;54.43;99819.94;5094339;28;20040;-63
2023/06/17 07:03:56;;;;;;;8.35;4.43;;;;;;;21.76;54.26;99827.06;5094115;28;20047;-64
2023/06/17 07:06:24;;;;;;;6.95;4.50;;;;;;;21.76;54.37;99825.19;5094015;28;20052;-63
2023/06/17 07:08:52;;;;;;;7.60;5.15;;;;;;;21.78;54.31;99825.00;5093888;28;20055;-63
2023/06/17 07:11:20;;;;;;;7.60;4.93;;;;;;;21.78;54.31;99833.16;5093949;28;20554;-63
2023/06/17 07:13:48;;;;;;;8.60;4.57;;;;;;;21.78;54.43;99825.84;5094251;28;20052;-63
2023/06/17 07:16:17;;;;;;;9.60;4.80;;;;;;;21.79;54.71;99830.25;5094147;28;20489;-63
2023/06/17 07:18:48;;;;;;;8.15;4.80;;;;;;;21.80;54.42;99822.97;5093643;28;20058;-63
2023/06/17 07:21:18;;;;;;;7.13;4.78;;;;;;;21.80;54.49;99825.69;5093586;28;20156;-64
2023/06/17 07:23:46;;;;;;;7.65;4.50;;;;;;;21.79;54.53;99815.84;5093859;28;20047;-62
2023/06/17 07:26:14;;;;;;;7.47;4.80;;;;;;;21.81;54.57;99820.09;5093878;28;20132;-63
2023/06/17 07:28:43;;;;;;;7.40;4.35;;;;;;;21.83;54.63;99822.63;5093854;28;20049;-63
2023/06/17 07:31:12;;;;;;;7.10;4.85;;;;;;;21.85;54.64;99826.00;5093561;28;20493;-62
2023/06/17 07:33:41;;;;;;;6.70;4.82;;;;;;;21.86;54.41;99833.13;5093090;28;20412;-63
2023/06/17 07:36:09;;;;;;;8.15;4.63;;;;;;;21.85;54.39;99831.44;5093489;28;20048;-63
2023/06/17 07:38:38;;;;;;;9.85;5.00;;;;;;;21.85;54.75;99826.00;5093733;28;20044;-62
2023/06/17 07:41:06;;;;;;;5.95;4.68;;;;;;;21.86;54.71;99822.28;5093359;28;20070;-62
2023/06/17 07:43:35;;;;;;;7.03;4.78;;;;;;;21.89;54.59;99822.75;5092730;28;20048;-63
2023/06/17 07:46:03;;;;;;;6.75;5.18;;;;;;;21.88;54.49;99828.38;5093237;28;20044;-63
2023/06/17 07:48:36;;;;;;;5.97;4.45;;;;;;;21.89;54.74;99828.19;5093378;28;20048;-63
2023/06/17 07:51:04;;;;;;;6.65;4.75;;;;;;;21.92;54.46;99821.59;5092364;28;20051;-63
2023/06/17 07:53:32;;;;;;;9.35;5.25;;;;;;;21.91;54.22;99818.03;5093304;28;20046;-62
2023/06/17 07:56:02;;;;;;;9.55;5.22;;;;;;;21.91;54.30;99817.19;5093114;28;20044;-63
2023/06/17 07:58:30;;;;;;;6.55;5.00;;;;;;;21.89;54.62;99824.63;5093167;28;20044;-64
2023/06/17 08:00:58;;;;;;;8.48;5.25;;;;;;;21.90;54.54;99827.16;5092768;28;20386;-64
2023/06/17 08:03:26;;;;;;;10.07;5.05;;;;;;;21.92;54.43;99827.84;5092095;28;20458;-64
2023/06/17 08:05:55;;;;;;;8.77;4.80;;;;;;;21.97;54.29;99819.16;5100916;28;20043;-65
2023/06/17 08:08:23;;;;;;;11.95;5.25;;;;;;;22.02;54.77;99813.22;5113105;28;20055;-65
2023/06/17 08:10:51;;;;;;;7.47;4.88;;;;;;;22.07;54.62;99810.84;5113168;28;20048;-65
2023/06/17 08:13:21;;;;;;;11.15;5.90;;;;;;;22.13;54.63;99812.88;5113481;28;20052;-64
2023/06/17 08:15:51;;;;;;;18.35;5.50;;;;;;;22.19;55.04;99806.69;5113056;28;20048;-64
2023/06/17 08:18:19;;;;;;;14.02;5.53;;;;;;;22.21;54.41;99816.38;5103504;28;20132;-65
2023/06/17 08:20:50;;;;;;;14.73;5.97;;;;;;;22.24;54.62;99802.44;5092727;28;20055;-65
2023/06/17 08:23:19;;;;;;;9.32;5.20;;;;;;;22.28;54.56;99811.91;5092890;28;20472;-65
2023/06/17 08:25:47;;;;;;;11.40;5.57;;;;;;;22.32;54.29;99811.56;5092574;28;20048;-65
2023/06/17 08:28:15;;;;;;;8.43;4.82;;;;;;;22.34;53.75;99812.25;5092574;28;20048;-65
2023/06/17 08:30:44;;;;;;;11.35;5.10;;;;;;;22.37;53.86;99814.59;5092445;28;20127;-65
2023/06/17 08:33:12;;;;;;;9.02;5.07;;;;;;;22.38;53.41;99821.72;5092157;28;20048;-65
2023/06/17 08:35:41;;;;;;;10.45;5.10;;;;;;;22.40;52.90;99816.97;5092295;28;20074;-65
2023/06/17 08:38:09;;;;;;;9.00;5.55;;;;;;;22.41;52.82;99826.81;5092248;28;20040;-65
2023/06/17 08:40:39;;;;;;;9.77;5.38;;;;;;;22.42;52.79;99823.91;5092261;28;20058;-65
2023/06/17 08:43:09;;;;;;;9.65;4.97;;;;;;;22.44;52.82;99821.00;5092071;28;20043;-63
2023/06/17 08:45:38;;;;;;;8.38;5.05;;;;;;;22.46;52.79;99818.94;5092151;28;20087;-64
2023/06/17 08:48:09;;;;;;;8.52;4.72;;;;;;;22.46;52.81;99822.50;5092078;28;20080;-64
2023/06/17 08:50:39;;;;;;;7.40;4.53;;;;;;;22.46;52.63;99816.22;5091951;28;20051;-64
2023/06/17 08:53:08;;;;;;;7.65;4.80;;;;;;;22.47;52.57;99823.34;5091668;28;20170;-64
2023/06/17 08:55:36;;;;;;;7.57;4.82;;;;;;;22.46;52.37;99811.66;5091687;28;20517;-65
2023/06/17 08:58:05;;;;;;;7.25;4.47;;;;;;;22.47;52.44;99815.19;5091893;28;20086;-65
2023/06/17 09:00:33;;;;;;;7.35;4.40;;;;;;;22.48;52.64;99816.91;5091884;28;20436;-65
2023/06/17 09:03:03;;;;;;;7.22;4.85;;;;;;;22.49;52.73;99814.03;5091632;28;20048;-65
2023/06/17 09:05:32;;;;;;;7.55;4.78;;;;;;;22.51;52.59;99816.56;5091501;28;20048;-65
2023/06/17 09:08:02;;;;;;;6.80;4.55;;;;;;;22.52;52.44;99826.41;5091539;28;20040;-64
2023/06/17 09:10:30;;;;;;;9.98;4.57;;;;;;;22.52;52.08;99818.25;5091735;28;20048;-65
2023/06/17 09:13:01;;;;;;;7.03;4.57;;;;;;;22.53;52.50;99814.50;5091506;28;20052;-65
2023/06/17 09:15:29;;;;;;;8.00;4.30;;;;;;;22.56;52.61;99814.13;5091571;28;20135;-65
2023/06/17 09:17:59;;;;;;;7.10;4.57;;;;;;;22.58;52.75;99809.34;5091368;28;20044;-65
2023/06/17 09:20:32;;;;;;;7.50;4.63;;;;;;;22.61;52.67;99810.88;5091167;28;20048;-65
2023/06/17 09:23:02;;;;;;;;;;;;;;;22.64;53.11;99821.38;5091605;28;20405;-65
2023/06/17 09:25:34;;;;;;;7.78;4.53;;;;;;;22.66;52.88;99825.59;5091450;28;19920;-65
2023/06/17 09:28:03;;;;;;;7.88;4.10;;;;;;;22.71;52.15;99828.66;5091137;28;20066;-65
2023/06/17 09:30:43;;;;;;;7.97;4.50;;;;;;;22.71;51.71;99815.06;5091290;28;20052;-65
2023/06/17 09:33:19;;;;;;;8.82;4.50;;;;;;;22.76;52.38;99815.34;5091069;28;20642;-65
2023/06/17 09:35:47;;;;;;;10.25;4.50;;;;;;;22.82;52.57;99820.06;5091218;28;20127;-65
2023/06/17 09:38:18;;;;;;;8.93;4.55;;;;;;;22.88;52.68;99823.13;5091601;28;20097;-64
2023/06/17 09:40:49;;;;;;;6.95;4.88;;;;;;;22.93;52.71;99826.13;5091622;28;20086;-64
2023/06/17 09:43:18;;;;;;;7.68;4.22;;;;;;;22.95;52.53;99824.91;5091265;28;20044;-68
2023/06/17 09:45:50;;;;;;;7.15;4.80;;;;;;;22.97;52.39;99822.00;5091291;28;20413;-68
2023/06/17 09:48:20;;;;;;;7.53;4.70;;;;;;;23.00;52.39;99821.66;5091091;28;20064;-64
2023/06/17 09:50:55;;;;;;;7.50;4.40;;;;;;;23.03;52.52;99821.28;5088431;28;20064;-63
2023/06/17 09:53:29;;;;;;;13.07;4.88;;;;;;;23.03;52.28;99815.84;5091048;28;20036;-63
2023/06/17 09:55:59;;;;;;;12.27;5.60;;;;;;;23.08;52.56;99817.00;5089860;28;20040;-64
2023/06/17 09:58:30;;;;;;;19.90;5.82;;;;;;;23.12;52.90;99810.16;5090659;28;20070;-64
2023/06/17 10:01:05;;;;;;;12.25;5.88;;;;;;;23.16;52.29;99818.78;5090251;28;20036;-64
2023/06/17 10:03:36;;;;;;;15.30;6.70;;;;;;;23.20;52.52;99816.56;5090781;28;20052;-63
2023/06/17 10:06:09;;;;;;;8.63;5.10;;;;;;;23.26;51.84;99819.41;5089705;28;20193;-64
2023/06/17 10:08:41;;;;;;;16.35;6.88;;;;;;;23.25;52.30;99814.97;5088801;28;20147;-62
2023/06/17 10:11:12;;;;;;;9.70;5.70;;;;;;;23.31;52.35;99816.94;5090315;28;20050;-63
2023/06/17 10:13:41;;;;;;;9.68;5.70;;;;;;;23.33;51.78;99819.47;5090428;28;20469;-63
2023/06/17 10:16:13;;;;;;;7.80;4.40;;;;;;;23.33;50.79;99822.19;5090811;28;20420;-63
2023/06/17 10:18:44;;;;;;;9.38;4.68;;;;;;;23.30;50.26;99826.16;5094290;28;20465;-64
2023/06/17 10:21:14;;;;;;;10.20;5.00;;;;;;;23.36;49.88;99822.69;5094466;28;20048;-62
2023/06/17 10:23:45;;;;;;;11.35;5.47;;;;;;;23.33;50.87;99817.59;5091523;28;20044;-63
2023/06/17 10:26:15;;;;;;;10.43;4.72;;;;;;;23.34;50.14;99824.72;5093765;28;20443;-63
2023/06/17 10:28:45;;;;;;;11.50;4.60;;;;;;;23.32;49.62;99826.81;5091572;28;20044;-63
2023/06/17 10:31:21;;;;;;;8.45;4.60;;;;;;;23.31;49.76;99827.00;5093983;28;20040;-62
2023/06/17 10:33:49;;;;;;;7.00;4.65;;;;;;;23.28;50.46;99820.06;5092047;28;20052;-62
2023/06/17 10:36:20;;;;;;;8.93;5.28;;;;;;;23.31;50.69;99818.81;5093470;28;20475;-62
2023/06/17 10:38:56;;;;;;;8.00;4.13;;;;;;;23.33;50.34;99822.19;5094251;28;20051;-62
2023/06/17 10:41:57;;;;;;;11.02;5.43;;;;;;;23.37;51.72;99818.94;5094098;28;20055;-63
2023/06/17 10:44:40;;;;;;;7.65;4.10;;;;;;;23.43;50.25;99820.91;5094197;28;20349;-60
2023/06/17 10:47:22;;;;;;;7.47;4.78;;;;;;;23.48;51.54;99828.53;5094375;28;20408;-62
2023/06/17 10:49:53;;;;;;;9.23;4.95;;;;;;;23.53;51.82;99823.34;5094111;28;20044;-62
2023/06/17 10:52:22;;;;;;;8.55;4.70;;;;;;;23.60;50.51;99823.50;5094061;28;20056;-61
2023/06/17 10:54:55;;;;;;;6.90;4.47;;;;;;;23.61;49.52;99819.75;5094034;28;20197;-62
2023/06/17 10:57:31;;;;;;;6.22;4.00;;;;;;;23.60;48.88;99827.06;5094405;28;20075;-62
2023/06/17 11:00:05;;;;;;;6.38;3.78;;;;;;;23.67;48.55;99822.56;5094065;28;20048;-63
2023/06/17 11:02:36;;;;;;;6.97;4.00;;;;;;;23.60;48.04;99818.06;5093369;28;20485;-63
2023/06/17 11:05:06;;;;;;;7.03;3.90;;;;;;;23.58;48.07;99820.09;5093054;28;20055;-64
2023/06/17 11:07:34;;;;;;;7.65;4.45;;;;;;;23.58;48.35;99817.38;5090615;28;20048;-64
2023/06/17 11:10:05;;;;;;;6.40;3.78;;;;;;;23.62;47.75;99813.25;5093217;28;20439;-64
2023/06/17 11:12:35;;;;;;;5.70;4.00;;;;;;;23.67;46.99;99808.13;5092861;28;20130;-64
2023/06/17 11:15:07;;;;;;;7.75;3.90;;;;;;;23.63;47.45;99802.19;5092577;28;20040;-64
2023/06/17 11:17:35;;;;;;;6.45;3.95;;;;;;;23.65;47.91;99821.06;5092601;28;20040;-64
2023/06/17 11:20:06;;;;;;;5.85;3.80;;;;;;;23.68;47.96;99815.25;5092783;28;20068;-64
2023/06/17 11:22:37;;;;;;;6.60;3.80;;;;;;;23.74;48.08;99819.06;5093111;28;20052;-64
2023/06/17 11:25:11;;;;;;;7.57;3.90;;;;;;;23.78;46.85;99815.81;5092637;28;20054;-64
2023/06/17 11:27:40;;;;;;;5.38;3.70;;;;;;;23.80;46.99;99819.19;5090182;28;20040;-64
2023/06/17 11:30:10;;;;;;;5.97;3.83;;;;;;;23.83;47.00;99824.25;5092617;28;20077;-64
2023/06/17 11:32:41;;;;;;;5.28;3.80;;;;;;;23.85;46.65;99816.75;5092906;28;20044;-65
2023/06/17 11:35:10;;;;;;;5.90;3.55;;;;;;;23.89;46.65;99814.50;5092291;28;20079;-63
2023/06/17 11:37:38;;;;;;;6.28;3.58;;;;;;;23.94;46.46;99809.34;5093159;28;20040;-64
2023/06/17 11:40:12;;;;;;;5.97;3.78;;;;;;;23.98;46.88;99818.81;5092922;28;20055;-64
2023/06/17 11:42:43;;;;;;;6.35;3.80;;;;;;;24.04;47.32;99801.72;5092611;28;20131;-64
2023/06/17 11:45:11;;;;;;;6.78;4.07;;;;;;;24.11;47.07;99804.50;5092748;28;20062;-64